Loisir ou Compétition : Rejoignez un Club de la Fédération

Résultats

SAMSE NATIONAL TOUR FFS 2 CHAMPIONNATS DE FRANCE SPRINT U17

AUTRANS

KO-QLF Hommes

Jury de Compétition

Délégué Technique :
FOURNIER YVES (DA)
D.T. Adjoint :
GALLIN LIONEL (DA)
Dir. Epreuve :
GAILLARD LILIAN (DA)

Caractéristiques de la Piste

Piste :
REPLIS
Distance :
1.2 km
Point Haut :
 
Point Bas :
 
Montée Tot. :
 
Montée Max. :
 
Homologation :
 

Pénalité Appliquée :
90.0000
Coefficient :
1200

Catégorie :
U17
Style :
C
Clt Dos Clt/Cat Code An Nom Prénom Com Club Temps Ecart Points
Classés
1 202 1/U17 FFS2670987 2003 VAUTHIER MATHURIN MV LA BRESSAUDE 3:03.88 00.00 90.00
2 201 2/U17 FFS2663675 2003 ESSONNIER IVAN SA CS LA FECLAZ 3:09.17 05.29 124.52
3 225 3/U17 FFS2676437 2003 BAVEREL PIERRE MJ ES SAUGETTE 3:12.57 08.69 146.71
4 231 4/U17 FFS2659939 2004 PORRET EMIL DA US AUTRANNAI 3:13.75 09.87 154.41
5 209 5/U17 FFS2675463 2003 MISSILLIER CONSTANT MB SC GD BORNAN 3:13.76 09.88 154.48
6 204 6/U17 FFS2682382 2003 BOURGON JULES MJ SC VERRIERES 3:13.81 09.93 154.80
7 208 7/U17 FFS2675689 2003 MALGRAND HUGO MB PRAZ LYS-SOM 3:14.24 10.36 157.61
8 203 8/U17 FFS2670579 2003 ALLEMAND NEIL AP AS EDELWEISS 3:14.93 11.05 162.11
9 218 9/U17 FFS2664168 2004 VINCENT LENNIE MJ SKI ROUSSES 3:15.49 11.61 165.77
10 207 10/U17 FFS2681218 2003 ROUTIN HUGO MB PRAZ LYS-SOM 3:17.70 13.82 180.19
11 230 11/U17 FFS2664151 2004 CAILLOT FELIX DA SA MEAUDRAIS 3:18.08 14.20 182.67
12 210 12/U17 FFS2671811 2003 TYRODE JOSSE MJ SC LESFOURGS 3:18.26 14.38 183.84
13 213 13/U17 FFS2658355 2004 DOUILLET BAPTISTE DA SN CHARTROUS 3:18.44 14.56 185.02
14 294 14/U17 FNL1420264 2003 SELLES BERNAT SP CATALOGNE 3:19.26 15.38 190.37
15 217 15/U17 FFS2665846 2004 SAGE MARTIN DA SN CHARTROUS 3:21.32 17.44 203.81
16 268 16/U17 FFS2670259 2004 BLANCHARD TITOUAN MB CS LA CLUSAZ 3:21.56 17.68 205.38
17 235 17/U17 FFS2666900 2004 JAN PIERRE MV GERARDMER SN 3:21.57 17.69 205.44
18 214 18/U17 FFS2661562 2003 CHATEAUNEUF OSCAR MJ BOIS D'AMONT 3:22.18 18.30 209.43
19 232 19/U17 FFS2681664 2004 PERROUD DORIAN MB SCNP ROCHOIS 3:22.61 18.73 212.23
20 300 20/U17 FNL1420266 2004 VILARO ROC SP CATALOGNE 3:22.63 18.75 212.36
21 293 21/U17 FFS2705274 2004 BRYOEEN NILS OSCAR MB CS CHAMONIX 3:23.48 19.60 217.91
22 239 22/U17 FFS2667079 2003 CHENU EMMANUEL SA SC PEISEY VA 3:23.79 19.91 219.93
23 250 23/U17 FFS2658036 2003 BARON BAPTISTE MB CS LA CLUSAZ 3:23.94 20.06 220.91
24 223 24/U17 FFS2665667 2003 SCHULTZ PAUL LY SC LE POIZAT 3:24.06 20.18 221.69
25 206 25/U17 FFS2670999 2003 BERNAUDON MATHIS AP MTGVE V.CLAR 3:24.39 20.51 223.85
26 255 26/U17 FFS2658787 2004 GAULIER AUBIN DA CS VILLARD 3:24.49 20.61 224.50
27 224 27/U17 FFS2666711 2004 DONET GAETAN DA SA MEAUDRAIS 3:24.61 20.73 225.28
28 215 28/U17 FFS2670598 2003 DORO AXEL SA CS LA FECLAZ 3:24.67 20.79 225.68
29 228 29/U17 FFS2661951 2004 SEROT HUGO SA SC BOZEL 3:24.79 20.91 226.46
30 297 30/U17 FNL1020006 2004 BORRELL ANIOL SP CATALOGNE 3:25.06 21.18 228.22
31 267 31/U17 FFS2675595 2003 BOUVEROT ZIAN MB SC CONTAMINE 3:26.27 22.39 236.12
32 205 32/U17 FFS2658773 2003 MARSEILLE NATHAN AP GAP-BAYARD 3:26.31 22.43 236.38
33 220 33/U17 FFS2656732 2003 BLANC MATHIEU SA CS MERIBEL 3:26.51 22.63 237.68
34 237 34/U17 FFS2676777 2004 FRIBOURG QUENTIN AP SAUZE BARCEL 3:26.52 22.64 237.75
35 211 35/U17 FFS2675692 2004 LEUENBERGER LEO MV SC XONRUPT 3:27.20 23.32 242.19
36 234 36/U17 FFS2670606 2003 SIMONOT ANTONIN SA CS LA FECLAZ 3:27.30 23.42 242.84
37 227 37/U17 FFS2676994 2004 GENEST NOA AU SC MEZENC 3:27.76 23.88 245.84
38 216 38/U17 FFS2681916 2003 BERROT MARTIN MJ OYE-PALLET 3:28.76 24.88 252.37
39 286 39/U17 FFS2666640 2004 LAISSUS MILHAN SA SC MENUIRES 3:28.78 24.90 252.50
40 273 40/U17 FFS2675725 2003 BERGLEZ BORIS DA SNB CHAMROUS 3:28.90 25.02 253.28
41 212 41/U17 FFS2674908 2003 BRUNET JULIEN AP ORRES EMBRUN 3:29.27 25.39 255.70
42 233 42/U17 FFS2665260 2004 TAGLIONE ENZO MJ SMBM/MORBIER 3:29.47 25.59 257.00
43 222 43/U17 FFS2664692 2004 GROS MICHELE MB SC CONTAMINE 3:30.61 26.73 264.44
44 266 44/U17 FFS2680999 2004 GRAND JULIEN MJ SC GRANDVAUX 3:31.27 27.39 268.75
45 291 45/U17 FFS2684607 2004 ADAM NINO MB CS CHAMONIX 3:31.47 27.59 270.05
46 287 46/U17 FFS2648791 2004 FORTINA ADAM MB SC CONTAMINE 3:31.65 27.77 271.23
47 272 47/U17 FFS2687019 2004 LECOCQ CLEMENT AU CNAP 3:32.63 28.75 277.62
48 263 48/U17 FFS2681694 2004 REBOULLET TOM MJ HT JURA SKI 3:33.26 29.38 281.73
49 243 49/U17 FFS2686923 2004 JACQUES ALBAN MJ OYE-PALLET 3:33.45 29.57 282.97
50 249 50/U17 FFS2677441 2004 BUET PIERRE LOIC MJ SMBM/MORBIER 3:33.76 29.88 285.00
51 251 51/U17 FFS2681176 2003 VERDENET GASPARD MJ OYE-PALLET 3:33.82 29.94 285.39
52 284 52/U17 FFS2675687 2004 JULIEN JACQUEMET LOUIS DA SNO 3:34.34 30.46 288.78
53 261 53/U17 FFS2674515 2004 LANNE ANTOINE PE SC AZUN 3:34.61 30.73 290.54
54 247 54/U17 FFS2686888 2004 PELLEGRINI NINO MJ OYE-PALLET 3:35.11 31.23 293.81
55 248 55/U17 FFS2681263 2003 BOEUF LOAN DA SNB CHAMROUS 3:35.28 31.40 294.92
56 229 56/U17 FFS2661244 2003 VERGNOLLE TITOUAN DA SN CHARTROUS 3:35.59 31.71 296.94
56 253 56/U17 FFS2686357 2004 FAUVEL ROMAIN MV LAC BLANC SN 3:35.59 31.71 296.94
58 289 58/U17 FFS2665219 2004 COSTE NIELS DA US AUTRANNAI 3:35.70 31.82 297.66
59 254 59/U17 FFS2677193 2004 BOEUF MERYL DA SNB CHAMROUS 3:36.06 32.18 300.01
60 260 60/U17 FFS2681663 2004 LEVET GASTON MB SCNP ROCHOIS 3:36.23 32.35 301.12
61 258 61/U17 FFS2686392 2004 WERNER JOCELYN MV LAC BLANC SN 3:36.93 33.05 305.68
62 264 62/U17 FFS2660505 2003 LECONTE VICTOR DA US AUTRANNAI 3:38.06 34.18 313.06
63 242 63/U17 FFS2664963 2004 BOURDE MARTIN AU CNAP 3:38.21 34.33 314.04
64 246 64/U17 FFS2686203 2004 MIGNOT BAPTISTE MJ SMBM/MORBIER 3:39.59 35.71 323.04
65 288 65/U17 FFS2662962 2004 PANISSET SIMON MB SC GD BORNAN 3:40.33 36.45 327.87
66 262 66/U17 FFS2675750 2004 LAINE MARTIN DA SNB CHAMROUS 3:40.36 36.48 328.07
67 285 67/U17 FFS2675874 2004 GROSSET BOURBANGE ADAM DA GUC GRENOBLE 3:40.45 36.57 328.66
68 290 68/U17 FFS2678952 2004 FAVRE BONVIN TITOUAN MB SC GD BORNAN 3:42.06 38.18 339.16
69 238 69/U17 FFS2665905 2004 MAGINI ELOHANN LY CS VALROMEY 3:42.62 38.74 342.82
70 219 70/U17 FFS2670858 2004 SICRE PAULIN AU EM LA TOUR 3:42.69 38.81 343.27
71 269 71/U17 FFS2677438 2004 GLAVIEUX GUSTAVE MJ SMBM/MORBIER 3:42.76 38.88 343.73
72 271 72/U17 FFS2676581 2004 ROUX MATTEO AP MTGVE V.CLAR 3:43.11 39.23 346.01
73 276 73/U17 FFS2675775 2004 SPETZ THOMAS DA SNB CHAMROUS 3:44.17 40.29 352.93
74 295 74/U17 FNL1560286 2003 GABARRO BERNAT SP CATALOGNE 3:44.39 40.51 354.37
75 278 75/U17 FFS2681798 2004 SAVOIE GASTON MJ HT JURA SKI 3:44.67 40.79 356.20
76 240 76/U17 FFS2676127 2004 JARRIAND ELIO SA CS LA FECLAZ 3:45.22 41.34 359.78
77 257 77/U17 FFS2681280 2004 GIORDANENGO LOUIS DA SNB CHAMROUS 3:45.40 41.52 360.96
78 275 78/U17 FFS2681267 2003 BUNOZ BASILE DA SNB CHAMROUS 3:45.78 41.90 363.44
79 296 79/U17 FNL436315 2003 CARDONA NIL SP CATALOGNE 3:45.91 42.03 364.29
80 279 80/U17 FFS2666712 2004 LANGLAIS GASPARD DA CS VILLARD 3:45.98 42.10 364.74
81 281 81/U17 FFS2705258 2004 POGOSIAN seroja MJ SC MONT NOIR 3:46.40 42.52 367.49
82 256 82/U17 FFS2676774 2004 PETIOT PAUL AP ES VALLOUISE 3:46.89 43.01 370.68
83 280 83/U17 FFS2675867 2004 LABBE ELIAN DA GUC GRENOBLE 3:47.87 43.99 377.08
84 283 84/U17 FFS2681320 2004 LEBARD JAN MB DRAGONS ANNY 3:47.94 44.06 377.54
85 245 85/U17 FFS2676116 2004 JACQUIER JUDICAEL SA CS LA FECLAZ 3:50.29 46.41 392.87
85 252 85/U17 FFS2673533 2004 TUILLIERE ANDEOL AP LES TROLLS 3:50.29 46.41 392.87
87 241 87/U17 FFS2686207 2004 CHOLVY ARTHUR AU CN ST JULIEN 3:50.37 46.49 393.39
88 236 88/U17 FFS2677531 2004 RAULIN TIMOTHE AP ES VALLOUISE 3:51.88 48.00 403.25
89 270 89/U17 FFS2677078 2004 SEVESSAND LOUP SA SC ARECHES 3:52.07 48.19 404.49
90 274 90/U17 FFS2672940 2004 DUNBAR KRAY SA SC ARECHES 3:53.84 49.96 416.04
91 265 91/U17 FFS2664007 2004 LERAY AWEN AU CNAP 3:55.56 51.68 427.26
92 292 92/U17 FFS2681002 2004 GONIN LEANDRE MB SC GD BORNAN 3:56.08 52.20 430.66
93 277 93/U17 FFS2665901 2004 JACQUET GAEL LY CS VALROMEY 3:58.15 54.27 444.17
94 244 94/U17 FFS2670454 2003 LANCHAIS MARC SA CS LA FECLAZ 4:08.43 1:04.55 511.25
95 298 95/U17 FNL1560020 2004 BOLANOS ALEX SP CATALOGNE 4:10.43 1:06.55 524.30
96 282 96/U17 FFS2657361 2003 SCARPA ESTEBAN DA SNO 4:15.02 1:11.14 554.26
Non partants
221 FFS2682515 2004 TOURNIER GABIN MJ ES SAUGETTE
226 FFS2665222 2004 DEUFFIC CHARLY DA US AUTRANNAI
259 FFS2687338 2004 RENAUD ALIX MJ DAMPRICHARD